createdAt,value
2022-11-06T00:01:13.014Z,26.10
2022-11-06T00:03:42.201Z,23.90
2022-11-06T00:06:31.216Z,26.00
2022-11-06T00:09:01.114Z,26.70
2022-11-06T00:11:30.350Z,22.20
2022-11-06T00:14:00.199Z,21.90
2022-11-06T00:16:29.190Z,20.30
2022-11-06T00:19:00.125Z,24.20
2022-11-06T00:21:30.255Z,23.70
2022-11-06T00:24:00.606Z,22.60
2022-11-06T00:26:30.883Z,24.10
2022-11-06T00:28:59.765Z,24.20
2022-11-06T00:31:30.561Z,23.60
2022-11-06T00:34:00.496Z,27.10
2022-11-06T00:36:32.813Z,22.50
2022-11-06T00:39:01.325Z,23.60
2022-11-06T00:41:29.589Z,22.40
2022-11-06T00:44:00.711Z,24.70
2022-11-06T00:46:29.978Z,27.00
2022-11-06T00:48:58.189Z,26.50
2022-11-06T00:51:39.351Z,20.10
2022-11-06T00:54:11.475Z,21.20
2022-11-06T00:56:40.273Z,22.50
2022-11-06T00:59:12.523Z,23.80
2022-11-06T01:01:44.070Z,23.90
2022-11-06T01:04:15.135Z,25.60
2022-11-06T01:06:46.206Z,24.50
2022-11-06T01:09:17.245Z,26.80
2022-11-06T01:14:43.352Z,25.10
2022-11-06T01:17:12.111Z,24.10
2022-11-06T01:19:40.325Z,22.20
2022-11-06T01:22:08.713Z,22.60
2022-11-06T01:24:36.864Z,25.30
2022-11-06T01:27:25.443Z,24.20
2022-11-06T01:29:53.235Z,24.10
2022-11-06T01:32:21.265Z,27.90
2022-11-06T01:34:51.147Z,23.70
2022-11-06T01:37:19.493Z,22.50
2022-11-06T01:39:50.550Z,21.00
2022-11-06T01:45:29.514Z,21.10
2022-11-06T01:47:57.826Z,21.10
2022-11-06T01:50:27.157Z,19.20
2022-11-06T01:52:56.201Z,22.60
2022-11-06T01:55:30.502Z,20.00
2022-11-06T01:58:01.803Z,24.70
2022-11-06T02:05:00.281Z,26.50
2022-11-06T02:07:28.681Z,25.80
2022-11-06T02:09:56.839Z,29.60
2022-11-06T02:12:27.867Z,20.70
2022-11-06T02:15:21.414Z,25.00
2022-11-06T02:18:11.687Z,21.50
2022-11-06T02:21:15.404Z,25.40
2022-11-06T02:24:17.734Z,25.60
2022-11-06T02:27:13.707Z,24.40
2022-11-06T02:29:47.934Z,25.60
2022-11-06T02:32:32.367Z,27.10
2022-11-06T02:35:03.798Z,27.00
2022-11-06T02:37:37.046Z,26.80
2022-11-06T02:40:08.927Z,27.20
2022-11-06T02:42:45.865Z,26.50
2022-11-06T02:45:17.467Z,29.60
2022-11-06T02:47:49.171Z,32.30
2022-11-06T02:50:35.067Z,33.00
2022-11-06T02:53:06.409Z,33.50
2022-11-06T02:55:40.256Z,30.50
2022-11-06T02:58:14.442Z,31.70
2022-11-06T03:00:53.212Z,28.40
2022-11-06T03:03:28.193Z,26.40
2022-11-06T03:06:07.285Z,27.80
2022-11-06T03:09:02.739Z,26.40
2022-11-06T03:11:38.976Z,25.90
2022-11-06T03:14:10.126Z,30.40
2022-11-06T03:16:54.946Z,24.10
2022-11-06T03:19:42.789Z,27.50
2022-11-06T03:22:30.878Z,29.50
2022-11-06T03:25:05.771Z,28.60
2022-11-06T03:27:40.597Z,33.80
2022-11-06T03:30:16.498Z,32.90
2022-11-06T03:32:53.971Z,29.60
2022-11-06T03:35:22.279Z,31.30
2022-11-06T03:37:54.304Z,30.40
2022-11-06T03:40:26.033Z,23.10
2022-11-06T03:43:00.740Z,27.60
2022-11-06T03:45:32.326Z,24.70
2022-11-06T03:48:09.337Z,24.40
2022-11-06T03:50:54.335Z,24.90
2022-11-06T03:53:35.226Z,27.90
2022-11-06T03:56:08.669Z,24.20
2022-11-06T03:58:40.838Z,23.10
2022-11-06T04:01:10.986Z,24.30
2022-11-06T04:03:54.070Z,24.80
2022-11-06T04:06:29.165Z,24.60
2022-11-06T04:09:22.990Z,22.50
2022-11-06T04:12:10.708Z,23.10
2022-11-06T04:14:45.266Z,22.20
2022-11-06T04:17:15.383Z,21.80
2022-11-06T04:19:50.607Z,23.80
2022-11-06T04:22:33.648Z,22.90
2022-11-06T04:25:41.590Z,19.10
2022-11-06T04:28:18.451Z,22.70
2022-11-06T04:30:51.191Z,20.70
2022-11-06T04:33:45.369Z,22.20
2022-11-06T04:36:37.660Z,21.30
2022-11-06T04:39:38.941Z,19.50
2022-11-06T04:44:49.333Z,21.00
2022-11-06T04:47:20.662Z,21.80
2022-11-06T04:49:52.276Z,23.80
2022-11-06T04:52:25.647Z,18.70
2022-11-06T04:54:56.317Z,21.40
2022-11-06T04:57:25.806Z,17.30
2022-11-06T04:59:54.427Z,19.20
2022-11-06T05:02:23.046Z,17.80
2022-11-06T05:04:51.406Z,19.70
2022-11-06T05:07:19.402Z,18.50
2022-11-06T05:09:47.520Z,20.10
2022-11-06T05:12:15.770Z,19.30
2022-11-06T05:14:43.868Z,19.90
2022-11-06T05:17:11.903Z,19.90
2022-11-06T05:19:40.284Z,19.10
2022-11-06T05:22:28.202Z,18.20
2022-11-06T05:24:56.543Z,17.60
2022-11-06T05:27:24.583Z,19.00
2022-11-06T05:29:52.646Z,17.70
2022-11-06T05:32:21.016Z,18.00
2022-11-06T05:34:49.053Z,22.10
2022-11-06T05:37:17.178Z,21.80
2022-11-06T05:39:51.504Z,23.20
2022-11-06T05:42:19.655Z,22.50
2022-11-06T05:44:47.992Z,19.60
2022-11-06T05:47:16.078Z,19.60
2022-11-06T05:49:44.236Z,22.30
2022-11-06T05:52:12.473Z,20.70
2022-11-06T05:54:40.466Z,17.80
2022-11-06T05:57:08.615Z,19.50
2022-11-06T05:59:37.317Z,15.50
2022-11-06T06:02:05.438Z,20.70
2022-11-06T06:04:33.522Z,19.70
2022-11-06T06:07:01.745Z,18.20
2022-11-06T06:09:30.449Z,17.50
2022-11-06T06:11:58.441Z,16.20
2022-11-06T06:14:26.643Z,16.60
2022-11-06T06:16:54.764Z,15.90
2022-11-06T06:19:22.757Z,16.80
2022-11-06T06:21:50.862Z,18.00
2022-11-06T06:24:18.993Z,15.30
2022-11-06T06:26:47.226Z,18.90
2022-11-06T06:29:16.705Z,14.30
2022-11-06T06:31:45.112Z,17.20
2022-11-06T06:34:13.176Z,16.30
2022-11-06T06:36:41.493Z,14.30
2022-11-06T06:39:09.834Z,16.60
2022-11-06T06:41:38.492Z,18.90
2022-11-06T06:44:06.827Z,13.90
2022-11-06T06:46:34.897Z,13.00
2022-11-06T06:49:03.092Z,13.20
2022-11-06T06:51:31.302Z,12.30
2022-11-06T06:53:59.412Z,12.80
2022-11-06T06:56:27.423Z,12.50
2022-11-06T06:58:56.093Z,13.70
2022-11-06T07:01:24.588Z,14.70
2022-11-06T07:03:52.897Z,13.10
2022-11-06T07:06:21.658Z,13.10
2022-11-06T07:08:49.653Z,14.20
2022-11-06T07:11:18.565Z,13.90
2022-11-06T07:13:46.981Z,13.60
2022-11-06T07:16:15.139Z,16.60
2022-11-06T07:18:43.235Z,12.20
2022-11-06T07:21:12.788Z,15.00
2022-11-06T07:23:41.144Z,16.20
2022-11-06T07:26:09.546Z,17.40
2022-11-06T07:28:37.929Z,16.40
2022-11-06T07:31:07.883Z,14.50
2022-11-06T07:33:36.235Z,15.50
2022-11-06T07:36:10.064Z,14.30
2022-11-06T07:38:39.719Z,15.00
2022-11-06T07:41:14.259Z,15.50
2022-11-06T07:43:43.614Z,14.30
2022-11-06T07:46:13.709Z,13.20
2022-11-06T07:48:41.741Z,15.60
2022-11-06T07:51:10.865Z,17.30
2022-11-06T07:53:39.260Z,21.40
2022-11-06T07:56:08.854Z,21.10
2022-11-06T07:58:37.280Z,15.20
2022-11-06T08:01:06.287Z,12.30
2022-11-06T08:03:34.545Z,15.40
2022-11-06T08:06:05.271Z,12.40
2022-11-06T08:08:33.897Z,19.00
2022-11-06T08:11:07.547Z,16.20
2022-11-06T08:13:36.234Z,16.30
2022-11-06T08:16:13.269Z,13.80
2022-11-06T08:18:41.903Z,14.70
2022-11-06T08:21:09.921Z,15.30
2022-11-06T08:23:38.025Z,14.80
2022-11-06T08:26:07.414Z,15.70
2022-11-06T08:28:35.685Z,13.90
2022-11-06T08:31:08.394Z,16.10
2022-11-06T08:33:38.612Z,16.60
2022-11-06T08:36:08.619Z,13.90
2022-11-06T08:38:36.974Z,14.20
2022-11-06T08:41:10.726Z,14.50
2022-11-06T08:43:39.977Z,18.10
2022-11-06T08:46:09.820Z,14.80
2022-11-06T08:48:38.102Z,14.20
2022-11-06T08:51:06.704Z,17.00
2022-11-06T08:53:35.292Z,16.90
2022-11-06T08:56:04.841Z,17.50
2022-11-06T08:58:32.971Z,15.90
2022-11-06T09:01:01.035Z,16.60
2022-11-06T09:03:29.126Z,13.90
2022-11-06T09:05:57.707Z,14.60
2022-11-06T09:08:26.521Z,17.00
2022-11-06T09:10:58.462Z,15.70
2022-11-06T09:13:27.370Z,17.60
2022-11-06T09:15:55.535Z,15.80
2022-11-06T09:18:23.638Z,15.50
2022-11-06T09:20:56.339Z,13.40
2022-11-06T09:23:24.794Z,18.00
2022-11-06T09:25:52.990Z,17.30
2022-11-06T09:28:21.148Z,11.40
2022-11-06T09:30:49.240Z,10.60
2022-11-06T09:33:18.316Z,11.00
2022-11-06T09:35:46.632Z,9.60
2022-11-06T09:38:17.371Z,7.80
2022-11-06T09:40:52.717Z,12.20
2022-11-06T09:46:32.056Z,11.00
2022-11-06T09:49:03.129Z,9.80
2022-11-06T09:51:52.078Z,6.60
2022-11-06T09:54:27.573Z,7.40
2022-11-06T09:57:06.450Z,11.40
2022-11-06T09:59:37.687Z,9.50
2022-11-06T10:02:20.307Z,8.20
2022-11-06T10:05:18.740Z,9.00
2022-11-06T10:07:52.015Z,8.30
2022-11-06T10:10:26.808Z,10.30
2022-11-06T10:13:04.675Z,10.30
2022-11-06T10:15:45.177Z,7.90
2022-11-06T10:18:38.361Z,7.00
2022-11-06T10:21:12.834Z,11.20
2022-11-06T10:23:51.031Z,8.00
2022-11-06T10:26:28.673Z,6.10
2022-11-06T10:29:18.135Z,5.70
2022-11-06T10:32:34.540Z,8.40
2022-11-06T10:35:12.088Z,7.90
2022-11-06T10:37:48.015Z,6.70
2022-11-06T10:40:21.596Z,9.20
2022-11-06T10:43:09.072Z,6.70
2022-11-06T10:45:41.451Z,5.50
2022-11-06T10:48:29.868Z,5.40
2022-11-06T10:51:34.508Z,8.00
2022-11-06T10:54:14.312Z,7.00
2022-11-06T10:56:57.347Z,2.30
2022-11-06T10:59:25.682Z,5.50
2022-11-06T11:01:54.440Z,5.90
2022-11-06T11:04:22.661Z,7.90
2022-11-06T11:06:50.805Z,7.60
2022-11-06T11:09:28.722Z,6.00
2022-11-06T11:12:00.590Z,8.20
2022-11-06T11:14:31.276Z,4.30
2022-11-06T11:17:01.555Z,9.10
2022-11-06T11:19:39.012Z,10.90
2022-11-06T11:22:16.046Z,6.10
2022-11-06T11:25:08.686Z,6.40
2022-11-06T11:27:46.074Z,7.40
2022-11-06T11:30:23.458Z,3.80
2022-11-06T11:32:52.585Z,6.30
2022-11-06T11:35:27.326Z,6.20
2022-11-06T11:38:26.136Z,8.20
2022-11-06T11:41:08.007Z,7.90
2022-11-06T11:43:36.185Z,6.70
2022-11-06T11:46:05.427Z,5.10
2022-11-06T11:48:45.741Z,4.10
2022-11-06T11:51:19.709Z,3.50
2022-11-06T11:53:47.944Z,5.60
2022-11-06T11:56:36.210Z,4.50
2022-11-06T11:59:11.096Z,3.40
2022-11-06T12:01:40.913Z,5.20
2022-11-06T12:04:19.745Z,5.80
2022-11-06T12:06:54.805Z,6.60
2022-11-06T12:09:24.165Z,5.60
2022-11-06T12:11:54.659Z,4.70
2022-11-06T12:14:22.632Z,6.50
2022-11-06T12:16:53.794Z,6.90
2022-11-06T12:19:26.461Z,7.10
2022-11-06T12:22:02.119Z,6.30
2022-11-06T12:24:43.396Z,3.50
2022-11-06T12:27:18.554Z,6.30
2022-11-06T12:29:58.055Z,4.90
2022-11-06T12:32:31.976Z,5.30
2022-11-06T12:35:27.875Z,6.50
2022-11-06T12:38:26.722Z,6.20
2022-11-06T12:41:01.366Z,6.90
2022-11-06T12:43:37.509Z,5.00
2022-11-06T12:46:36.564Z,6.50
2022-11-06T12:49:32.400Z,7.00
2022-11-06T12:52:25.832Z,6.00
2022-11-06T12:55:18.037Z,4.80
2022-11-06T12:58:07.547Z,8.30
2022-11-06T13:00:57.148Z,7.10
2022-11-06T13:03:28.418Z,4.20
2022-11-06T13:05:59.278Z,2.10
2022-11-06T13:11:25.045Z,3.20
2022-11-06T13:14:00.848Z,4.50
2022-11-06T13:17:01.181Z,4.50
2022-11-06T13:19:29.355Z,5.40
2022-11-06T13:22:07.745Z,8.30
2022-11-06T13:24:51.722Z,3.00
2022-11-06T13:27:39.720Z,8.90
2022-11-06T13:30:24.562Z,5.50
2022-11-06T13:33:10.950Z,5.80
2022-11-06T13:35:43.373Z,6.30
2022-11-06T13:38:19.467Z,3.20
2022-11-06T13:40:53.730Z,4.80
2022-11-06T13:43:45.858Z,9.10
2022-11-06T13:46:45.001Z,4.50
2022-11-06T13:49:46.616Z,7.80
2022-11-06T13:52:51.020Z,8.00
2022-11-06T13:55:36.114Z,4.70
2022-11-06T13:58:29.123Z,5.00
2022-11-06T14:01:19.030Z,4.80
2022-11-06T14:04:04.276Z,7.10
2022-11-06T14:06:36.799Z,7.50
2022-11-06T14:09:19.154Z,8.40
2022-11-06T14:11:55.215Z,5.70
2022-11-06T14:14:26.367Z,7.50
2022-11-06T14:17:17.720Z,5.10
2022-11-06T14:19:50.214Z,6.20
2022-11-06T14:22:28.344Z,5.40
2022-11-06T14:25:01.480Z,8.60
2022-11-06T14:27:30.098Z,7.70
2022-11-06T14:30:07.966Z,3.50
2022-11-06T14:32:41.153Z,2.40
2022-11-06T14:35:28.835Z,10.60
2022-11-06T14:38:17.671Z,8.20
2022-11-06T14:40:46.172Z,4.20
2022-11-06T14:43:26.487Z,5.20
2022-11-06T14:46:00.480Z,4.30
2022-11-06T14:48:33.900Z,6.30
2022-11-06T14:51:05.765Z,4.00
2022-11-06T14:53:48.426Z,5.20
2022-11-06T14:56:24.693Z,8.60
2022-11-06T14:59:04.248Z,4.20
2022-11-06T15:01:35.474Z,5.50
2022-11-06T15:04:05.916Z,10.60
2022-11-06T15:06:33.967Z,4.40
2022-11-06T15:09:06.754Z,5.20
2022-11-06T15:11:47.439Z,5.10
2022-11-06T15:16:50.736Z,4.50
2022-11-06T15:19:23.705Z,3.90
2022-11-06T15:21:58.011Z,3.70
2022-11-06T15:24:34.576Z,7.00
2022-11-06T15:27:12.899Z,9.10
2022-11-06T15:29:43.262Z,7.00
2022-11-06T15:32:19.579Z,7.90
2022-11-06T15:34:59.836Z,6.30
2022-11-06T15:37:36.196Z,6.70
2022-11-06T15:40:05.515Z,7.90
2022-11-06T15:42:37.255Z,21.80
2022-11-06T15:45:15.762Z,59.90
2022-11-06T15:48:23.454Z,25.50
2022-11-06T15:50:51.478Z,14.20
2022-11-06T15:53:26.248Z,15.10
2022-11-06T15:56:00.276Z,14.60
2022-11-06T15:58:37.464Z,19.60
2022-11-06T16:01:07.897Z,23.70
2022-11-06T16:03:53.590Z,33.40
2022-11-06T16:06:21.866Z,60.10
2022-11-06T16:08:51.259Z,81.20
2022-11-06T16:11:20.679Z,66.40
2022-11-06T16:13:49.686Z,53.40
2022-11-06T16:16:42.234Z,50.80
2022-11-06T16:19:40.177Z,38.70
2022-11-06T16:22:13.339Z,33.20
2022-11-06T16:24:50.673Z,32.50
2022-11-06T16:27:19.836Z,27.30
2022-11-06T16:29:52.594Z,25.80
2022-11-06T16:32:23.762Z,24.80
2022-11-06T16:37:20.918Z,23.60
2022-11-06T16:39:53.681Z,26.80
2022-11-06T16:42:30.686Z,25.80
2022-11-06T16:45:03.164Z,27.20
2022-11-06T16:47:31.312Z,28.50
2022-11-06T16:50:01.947Z,25.70
2022-11-06T16:52:39.315Z,27.60
2022-11-06T16:55:17.388Z,29.40
2022-11-06T16:57:53.557Z,28.90
2022-11-06T17:00:23.737Z,30.90
2022-11-06T17:02:55.743Z,33.20
2022-11-06T17:05:33.712Z,35.00
2022-11-06T17:08:18.497Z,32.60
2022-11-06T17:10:48.146Z,30.80
2022-11-06T17:13:28.122Z,30.00
2022-11-06T17:15:59.206Z,28.90
2022-11-06T17:18:35.983Z,26.20
2022-11-06T17:21:16.102Z,26.90
2022-11-06T17:23:45.946Z,21.30
2022-11-06T17:26:19.973Z,24.40
2022-11-06T17:28:49.479Z,25.40
2022-11-06T17:31:20.210Z,36.10
2022-11-06T17:33:48.898Z,32.90
2022-11-06T17:36:28.740Z,41.70
2022-11-06T17:38:58.010Z,37.40
2022-11-06T17:41:32.958Z,34.30
2022-11-06T17:44:03.092Z,35.60
2022-11-06T17:46:37.222Z,28.80
2022-11-06T17:49:06.522Z,28.50
2022-11-06T17:51:50.669Z,26.20
2022-11-06T17:54:25.502Z,27.50
2022-11-06T17:56:58.164Z,29.10
2022-11-06T17:59:26.824Z,30.40
2022-11-06T18:01:55.329Z,27.20
2022-11-06T18:04:26.630Z,21.60
2022-11-06T18:09:24.281Z,21.00
2022-11-06T18:11:54.199Z,25.50
2022-11-06T18:14:24.805Z,20.60
2022-11-06T18:16:53.922Z,27.30
2022-11-06T18:19:24.196Z,20.50
2022-11-06T18:21:53.961Z,29.20
2022-11-06T18:24:22.709Z,24.50
2022-11-06T18:26:51.823Z,28.80
2022-11-06T18:29:19.991Z,28.40
2022-11-06T18:31:48.152Z,25.30
2022-11-06T18:34:20.507Z,31.30
2022-11-06T18:36:50.623Z,25.80
2022-11-06T18:39:19.706Z,27.10
2022-11-06T18:41:48.262Z,30.30
2022-11-06T18:44:18.230Z,31.10
2022-11-06T18:46:47.877Z,28.80
2022-11-06T18:49:16.040Z,25.00
2022-11-06T18:51:44.277Z,23.20
2022-11-06T18:54:12.892Z,23.80
2022-11-06T18:56:41.534Z,22.80
2022-11-06T18:59:15.340Z,27.10
2022-11-06T19:01:43.942Z,33.50
2022-11-06T19:04:12.305Z,28.60
2022-11-06T19:06:40.894Z,29.50
2022-11-06T19:09:09.884Z,28.70
2022-11-06T19:11:38.492Z,30.90
2022-11-06T19:14:06.723Z,29.30
2022-11-06T19:16:34.887Z,29.60
2022-11-06T19:19:05.689Z,35.50
2022-11-06T19:21:34.957Z,24.40
2022-11-06T19:24:05.978Z,29.10
2022-11-06T19:26:36.395Z,20.50
2022-11-06T19:29:08.291Z,27.20
2022-11-06T19:31:38.663Z,28.80
2022-11-06T19:34:08.375Z,20.50
2022-11-06T19:36:36.640Z,24.50
2022-11-06T19:39:05.841Z,21.20
2022-11-06T19:41:34.438Z,25.00
2022-11-06T19:44:02.684Z,19.50
2022-11-06T19:46:35.873Z,24.00
2022-11-06T19:49:07.000Z,22.40
2022-11-06T19:51:41.078Z,24.40
2022-11-06T19:54:11.349Z,24.40
2022-11-06T19:57:27.189Z,24.00
2022-11-06T19:59:28.049Z,26.60
2022-11-06T20:01:56.437Z,29.90
2022-11-06T20:04:24.931Z,28.10
2022-11-06T20:06:54.359Z,26.90
2022-11-06T20:09:22.951Z,25.70
2022-11-06T20:11:52.932Z,27.00
2022-11-06T20:14:22.043Z,31.30
2022-11-06T20:16:50.597Z,25.30
2022-11-06T20:19:19.773Z,28.40
2022-11-06T20:21:48.529Z,24.10
2022-11-06T20:24:16.624Z,24.70
2022-11-06T20:26:45.002Z,28.00
2022-11-06T20:29:13.343Z,24.60
2022-11-06T20:31:42.370Z,26.00
2022-11-06T20:34:10.388Z,24.90
2022-11-06T20:36:38.801Z,28.10
2022-11-06T20:39:07.174Z,27.80
2022-11-06T20:41:35.314Z,27.00
2022-11-06T20:44:04.462Z,20.90
2022-11-06T20:46:32.759Z,22.40
2022-11-06T20:49:00.851Z,23.50
2022-11-06T20:51:31.832Z,17.50
2022-11-06T20:54:00.737Z,13.80
2022-11-06T20:56:31.911Z,14.20
2022-11-06T20:59:00.080Z,19.80
2022-11-06T21:01:29.647Z,16.00
2022-11-06T21:03:58.567Z,19.30
2022-11-06T21:06:28.168Z,17.70
2022-11-06T21:08:56.690Z,25.70
2022-11-06T21:11:27.651Z,25.40
2022-11-06T21:13:56.520Z,35.70
2022-11-06T21:16:34.057Z,39.50
2022-11-06T21:19:03.583Z,39.30
2022-11-06T21:21:34.053Z,38.80
2022-11-06T21:24:03.155Z,38.60
2022-11-06T21:26:33.753Z,34.00
2022-11-06T21:29:04.505Z,30.50
2022-11-06T21:31:33.412Z,33.50
2022-11-06T21:34:03.202Z,31.50
2022-11-06T21:36:34.120Z,30.30
2022-11-06T21:39:07.656Z,27.30
2022-11-06T21:41:36.754Z,38.30
2022-11-06T21:44:06.304Z,33.00
2022-11-06T21:46:34.834Z,44.50
2022-11-06T21:49:03.155Z,35.90
2022-11-06T21:51:32.558Z,32.50
2022-11-06T21:54:19.730Z,30.10
2022-11-06T21:56:49.727Z,29.70
2022-11-06T21:59:19.933Z,34.30
2022-11-06T22:01:48.104Z,30.40
2022-11-06T22:04:16.316Z,28.00
2022-11-06T22:06:44.709Z,34.30
2022-11-06T22:09:14.235Z,29.30
2022-11-06T22:11:44.261Z,26.80
2022-11-06T22:14:14.985Z,24.60
2022-11-06T22:16:45.746Z,25.00
2022-11-06T22:19:15.466Z,26.30
2022-11-06T22:21:44.715Z,34.50
2022-11-06T22:24:14.026Z,41.80
2022-11-06T22:26:42.251Z,38.00
2022-11-06T22:29:14.312Z,28.70
2022-11-06T22:31:42.876Z,28.70
2022-11-06T22:34:12.432Z,35.70
2022-11-06T22:36:41.310Z,31.70
2022-11-06T22:39:10.786Z,31.30
2022-11-06T22:41:39.609Z,42.10
2022-11-06T22:44:08.245Z,46.60
2022-11-06T22:46:36.946Z,40.70
2022-11-06T22:49:05.435Z,43.00
2022-11-06T22:51:34.465Z,28.70
2022-11-06T22:54:04.017Z,28.00
2022-11-06T22:56:32.749Z,26.30
2022-11-06T22:59:05.453Z,25.90
2022-11-06T23:01:41.199Z,23.10
2022-11-06T23:04:16.650Z,25.30
2022-11-06T23:06:45.662Z,23.60
2022-11-06T23:09:14.517Z,25.80
2022-11-06T23:11:46.130Z,18.30
2022-11-06T23:14:14.949Z,23.40
2022-11-06T23:16:59.184Z,22.30
2022-11-06T23:19:29.741Z,22.80
2022-11-06T23:22:16.902Z,21.00
2022-11-06T23:24:45.685Z,25.70
2022-11-06T23:27:13.980Z,25.20
2022-11-06T23:29:42.168Z,22.60
2022-11-06T23:32:10.499Z,26.20
2022-11-06T23:34:38.757Z,24.30
2022-11-06T23:37:06.898Z,29.00
2022-11-06T23:39:35.116Z,26.50
2022-11-06T23:42:03.196Z,28.60
2022-11-06T23:44:49.985Z,25.90
2022-11-06T23:47:18.454Z,28.60
2022-11-06T23:49:46.481Z,23.30
2022-11-06T23:52:14.937Z,29.80
2022-11-06T23:54:43.627Z,27.20
2022-11-06T23:57:12.938Z,31.40
2022-11-06T23:59:41.424Z,31.40
